Карточка аэропорта UERR

Внимание!
Информация на этой странице в стадии наполнения.
Если вы не увидели какой-то информации, или заметили неточность - пожалуйста сообщите нам!
Спасибо!
Команда RU-STAFF
Название аэропортаМИРНЫЙ
Название аэропорта (англ.)MIRNY
Превышение354 ft. (107.9 m.)
Координаты62°32.082', 114°2.3400000000001'
Высота перехода3100 FT /(600) M
Эшелон перехода
Коды ответчика
Зона ОрВДЯкутск РПИ (UEEE)
Данные METARUERR 051100Z 32003MPS 9999 -SN NSC M12/M15 Q1015 R25/490335 NOSIG RMK QFE730/0973
Проноз погоды (TAF)UERR 050800Z 0509/0609 30003G09MPS 9999 -SN SCT020 TEMPO 0509/0512 2000 SHSN SCT007 BKN017CB
NOTAMshow/hide NOTAM
AWOS   TABLE

Информация о ВПП


Диспетчерские позиции


Сценарии

Сценарий
Нет результатов.

Схемы

None

Спутниковое изображение